Terminal Aerodrome Forecast
Issued by NWS Boston, MA

Home | Current Version | Previous Version | Text Only | Print | Product List | Glossary On
Versions: 1 2 3 4 5 6 7 8 9 10 11 12 13 14 15 16 17 18 19 20 21
000
FTUS41 KBOX 201726
TAFPVD
TAF
KPVD 201726Z 2018/2118 11008KT P6SM SCT250
     FM210300 14004KT P6SM SKC
     FM210600 00000KT P6SM FEW200
     FM211700 16007KT P6SM FEW140=

USA.gov is the U.S. government's official web portal to all federal, state and local government web resources and services.